sensor_id;sensor_type;location;lat;lon;timestamp;P1;durP1;ratioP1;P2;durP2;ratioP2
47309;SDS011;33046;52.270;6.832;2023-10-08T00:01:23;17.20;;;3.97;;
47309;SDS011;33046;52.270;6.832;2023-10-08T00:03:30;15.80;;;4.80;;
47309;SDS011;33046;52.270;6.832;2023-10-08T00:05:39;17.23;;;6.28;;
47309;SDS011;33046;52.270;6.832;2023-10-08T00:07:47;13.23;;;4.47;;
47309;SDS011;33046;52.270;6.832;2023-10-08T00:09:55;15.30;;;5.20;;
47309;SDS011;33046;52.270;6.832;2023-10-08T00:12:02;22.17;;;6.05;;
47309;SDS011;33046;52.270;6.832;2023-10-08T00:14:09;17.10;;;4.38;;
47309;SDS011;33046;52.270;6.832;2023-10-08T00:16:16;18.45;;;4.78;;
47309;SDS011;33046;52.270;6.832;2023-10-08T00:18:23;16.98;;;5.82;;
47309;SDS011;33046;52.270;6.832;2023-10-08T00:20:31;15.00;;;5.45;;
47309;SDS011;33046;52.270;6.832;2023-10-08T00:22:39;17.02;;;6.15;;
47309;SDS011;33046;52.270;6.832;2023-10-08T00:24:46;16.73;;;5.07;;
47309;SDS011;33046;52.270;6.832;2023-10-08T00:26:53;19.67;;;6.53;;
47309;SDS011;33046;52.270;6.832;2023-10-08T00:29:00;18.63;;;4.90;;
47309;SDS011;33046;52.270;6.832;2023-10-08T00:31:08;18.85;;;7.15;;
47309;SDS011;33046;52.270;6.832;2023-10-08T00:33:15;14.43;;;4.32;;
47309;SDS011;33046;52.270;6.832;2023-10-08T00:35:22;13.98;;;5.50;;
47309;SDS011;33046;52.270;6.832;2023-10-08T00:37:29;15.10;;;4.80;;
47309;SDS011;33046;52.270;6.832;2023-10-08T00:39:37;16.08;;;5.47;;
47309;SDS011;33046;52.270;6.832;2023-10-08T00:41:45;18.50;;;4.93;;
47309;SDS011;33046;52.270;6.832;2023-10-08T00:43:52;18.42;;;4.50;;
47309;SDS011;33046;52.270;6.832;2023-10-08T00:45:59;15.82;;;4.93;;
47309;SDS011;33046;52.270;6.832;2023-10-08T00:48:06;12.63;;;5.38;;
47309;SDS011;33046;52.270;6.832;2023-10-08T00:50:13;18.90;;;6.00;;
47309;SDS011;33046;52.270;6.832;2023-10-08T00:52:19;13.30;;;4.18;;
47309;SDS011;33046;52.270;6.832;2023-10-08T00:54:27;12.63;;;4.72;;
47309;SDS011;33046;52.270;6.832;2023-10-08T00:56:36;15.40;;;4.82;;
47309;SDS011;33046;52.270;6.832;2023-10-08T00:58:43;12.35;;;5.03;;
47309;SDS011;33046;52.270;6.832;2023-10-08T01:00:50;16.52;;;6.03;;
47309;SDS011;33046;52.270;6.832;2023-10-08T01:02:58;22.92;;;7.10;;
47309;SDS011;33046;52.270;6.832;2023-10-08T01:05:05;17.20;;;6.03;;
47309;SDS011;33046;52.270;6.832;2023-10-08T01:07:12;23.17;;;6.75;;
47309;SDS011;33046;52.270;6.832;2023-10-08T01:09:21;22.83;;;6.50;;
47309;SDS011;33046;52.270;6.832;2023-10-08T01:11:28;16.17;;;5.32;;
47309;SDS011;33046;52.270;6.832;2023-10-08T01:13:36;21.23;;;7.57;;
47309;SDS011;33046;52.270;6.832;2023-10-08T01:15:43;19.15;;;4.80;;
47309;SDS011;33046;52.270;6.832;2023-10-08T01:17:50;16.52;;;6.25;;
47309;SDS011;33046;52.270;6.832;2023-10-08T01:19:57;17.67;;;5.68;;
47309;SDS011;33046;52.270;6.832;2023-10-08T01:22:05;16.00;;;6.55;;
47309;SDS011;33046;52.270;6.832;2023-10-08T01:24:12;20.10;;;5.70;;
47309;SDS011;33046;52.270;6.832;2023-10-08T01:26:19;20.90;;;5.93;;
47309;SDS011;33046;52.270;6.832;2023-10-08T01:28:27;17.02;;;5.50;;
47309;SDS011;33046;52.270;6.832;2023-10-08T01:30:33;15.20;;;5.55;;
47309;SDS011;33046;52.270;6.832;2023-10-08T01:32:40;15.95;;;6.05;;
47309;SDS011;33046;52.270;6.832;2023-10-08T01:34:47;14.75;;;5.93;;
47309;SDS011;33046;52.270;6.832;2023-10-08T01:36:55;13.93;;;4.78;;
47309;SDS011;33046;52.270;6.832;2023-10-08T01:39:03;6.85;;;2.60;;
47309;SDS011;33046;52.270;6.832;2023-10-08T01:41:10;1.83;;;1.15;;
47309;SDS011;33046;52.270;6.832;2023-10-08T01:43:19;2.85;;;0.50;;
47309;SDS011;33046;52.270;6.832;2023-10-08T01:45:26;1.73;;;0.50;;
47309;SDS011;33046;52.270;6.832;2023-10-08T01:47:33;1.00;;;0.60;;
47309;SDS011;33046;52.270;6.832;2023-10-08T01:49:40;3.28;;;1.00;;
47309;SDS011;33046;52.270;6.832;2023-10-08T01:51:46;0.50;;;0.50;;
47309;SDS011;33046;52.270;6.832;2023-10-08T01:53:54;1.65;;;0.40;;
47309;SDS011;33046;52.270;6.832;2023-10-08T01:56:02;1.15;;;0.50;;
47309;SDS011;33046;52.270;6.832;2023-10-08T01:58:09;1.02;;;0.47;;
47309;SDS011;33046;52.270;6.832;2023-10-08T02:00:19;0.98;;;0.80;;
47309;SDS011;33046;52.270;6.832;2023-10-08T02:02:26;0.73;;;0.73;;
47309;SDS011;33046;52.270;6.832;2023-10-08T02:04:33;1.35;;;0.70;;
47309;SDS011;33046;52.270;6.832;2023-10-08T02:06:40;1.58;;;0.77;;
47309;SDS011;33046;52.270;6.832;2023-10-08T02:08:47;1.35;;;0.77;;
47309;SDS011;33046;52.270;6.832;2023-10-08T02:10:54;0.93;;;0.60;;
47309;SDS011;33046;52.270;6.832;2023-10-08T02:13:02;1.48;;;0.80;;
47309;SDS011;33046;52.270;6.832;2023-10-08T02:15:09;1.30;;;0.70;;
47309;SDS011;33046;52.270;6.832;2023-10-08T02:17:17;1.23;;;0.60;;
47309;SDS011;33046;52.270;6.832;2023-10-08T02:19:23;1.98;;;0.50;;
47309;SDS011;33046;52.270;6.832;2023-10-08T02:21:30;0.98;;;0.50;;
47309;SDS011;33046;52.270;6.832;2023-10-08T02:23:37;3.03;;;0.55;;
47309;SDS011;33046;52.270;6.832;2023-10-08T02:25:44;4.88;;;1.02;;
47309;SDS011;33046;52.270;6.832;2023-10-08T02:27:51;1.00;;;0.60;;
47309;SDS011;33046;52.270;6.832;2023-10-08T02:29:59;1.80;;;0.80;;
47309;SDS011;33046;52.270;6.832;2023-10-08T02:32:06;1.80;;;0.52;;
47309;SDS011;33046;52.270;6.832;2023-10-08T02:34:13;2.03;;;1.05;;
47309;SDS011;33046;52.270;6.832;2023-10-08T02:36:20;1.77;;;0.50;;
47309;SDS011;33046;52.270;6.832;2023-10-08T02:38:26;0.68;;;0.45;;
47309;SDS011;33046;52.270;6.832;2023-10-08T02:40:33;0.95;;;0.50;;
47309;SDS011;33046;52.270;6.832;2023-10-08T02:42:40;2.05;;;0.60;;
47309;SDS011;33046;52.270;6.832;2023-10-08T02:44:47;1.15;;;0.40;;
47309;SDS011;33046;52.270;6.832;2023-10-08T02:46:55;1.90;;;0.40;;
47309;SDS011;33046;52.270;6.832;2023-10-08T02:49:02;2.35;;;0.70;;
47309;SDS011;33046;52.270;6.832;2023-10-08T02:51:09;0.90;;;0.40;;
47309;SDS011;33046;52.270;6.832;2023-10-08T02:53:16;1.10;;;0.50;;
47309;SDS011;33046;52.270;6.832;2023-10-08T02:55:23;2.47;;;0.50;;
47309;SDS011;33046;52.270;6.832;2023-10-08T02:57:30;0.52;;;0.30;;
47309;SDS011;33046;52.270;6.832;2023-10-08T02:59:36;1.10;;;0.40;;
47309;SDS011;33046;52.270;6.832;2023-10-08T03:01:43;0.80;;;0.50;;
47309;SDS011;33046;52.270;6.832;2023-10-08T03:03:51;1.50;;;0.50;;
47309;SDS011;33046;52.270;6.832;2023-10-08T03:05:59;1.55;;;0.60;;
47309;SDS011;33046;52.270;6.832;2023-10-08T03:08:08;1.77;;;0.70;;
47309;SDS011;33046;52.270;6.832;2023-10-08T03:10:15;2.15;;;0.60;;
47309;SDS011;33046;52.270;6.832;2023-10-08T03:12:22;1.98;;;0.90;;
47309;SDS011;33046;52.270;6.832;2023-10-08T03:14:29;3.20;;;1.45;;
47309;SDS011;33046;52.270;6.832;2023-10-08T03:16:36;2.15;;;1.00;;
47309;SDS011;33046;52.270;6.832;2023-10-08T03:18:43;1.20;;;1.00;;
47309;SDS011;33046;52.270;6.832;2023-10-08T03:20:51;1.67;;;1.20;;
47309;SDS011;33046;52.270;6.832;2023-10-08T03:22:58;1.58;;;1.33;;
47309;SDS011;33046;52.270;6.832;2023-10-08T03:25:05;2.28;;;1.27;;
47309;SDS011;33046;52.270;6.832;2023-10-08T03:27:12;2.42;;;1.27;;
47309;SDS011;33046;52.270;6.832;2023-10-08T03:29:19;2.05;;;1.30;;
47309;SDS011;33046;52.270;6.832;2023-10-08T03:31:27;2.85;;;1.38;;
47309;SDS011;33046;52.270;6.832;2023-10-08T03:33:34;1.90;;;1.33;;
47309;SDS011;33046;52.270;6.832;2023-10-08T03:35:42;1.95;;;1.40;;
47309;SDS011;33046;52.270;6.832;2023-10-08T03:37:50;2.45;;;1.23;;
47309;SDS011;33046;52.270;6.832;2023-10-08T03:39:57;1.45;;;1.30;;
47309;SDS011;33046;52.270;6.832;2023-10-08T03:42:03;3.50;;;1.17;;
47309;SDS011;33046;52.270;6.832;2023-10-08T03:44:10;2.00;;;1.30;;
47309;SDS011;33046;52.270;6.832;2023-10-08T03:46:17;1.95;;;1.30;;
47309;SDS011;33046;52.270;6.832;2023-10-08T03:48:25;1.80;;;1.50;;
47309;SDS011;33046;52.270;6.832;2023-10-08T03:50:32;1.80;;;1.60;;
47309;SDS011;33046;52.270;6.832;2023-10-08T03:52:39;3.33;;;1.70;;
47309;SDS011;33046;52.270;6.832;2023-10-08T03:54:47;2.58;;;1.58;;
47309;SDS011;33046;52.270;6.832;2023-10-08T03:56:54;2.55;;;1.65;;
47309;SDS011;33046;52.270;6.832;2023-10-08T03:59:01;3.55;;;1.95;;
47309;SDS011;33046;52.270;6.832;2023-10-08T04:01:08;3.20;;;2.10;;
47309;SDS011;33046;52.270;6.832;2023-10-08T04:03:15;2.05;;;1.80;;
47309;SDS011;33046;52.270;6.832;2023-10-08T04:05:22;2.53;;;1.73;;
47309;SDS011;33046;52.270;6.832;2023-10-08T04:07:29;2.47;;;2.10;;
47309;SDS011;33046;52.270;6.832;2023-10-08T04:09:36;3.28;;;1.90;;
47309;SDS011;33046;52.270;6.832;2023-10-08T04:11:44;2.45;;;2.25;;
47309;SDS011;33046;52.270;6.832;2023-10-08T04:13:51;3.42;;;1.88;;
47309;SDS011;33046;52.270;6.832;2023-10-08T04:15:57;2.25;;;2.05;;
47309;SDS011;33046;52.270;6.832;2023-10-08T04:18:04;2.83;;;2.55;;
47309;SDS011;33046;52.270;6.832;2023-10-08T04:20:12;2.20;;;1.75;;
47309;SDS011;33046;52.270;6.832;2023-10-08T04:22:20;3.15;;;2.20;;
47309;SDS011;33046;52.270;6.832;2023-10-08T04:24:27;3.33;;;2.50;;
47309;SDS011;33046;52.270;6.832;2023-10-08T04:26:34;2.90;;;2.40;;
47309;SDS011;33046;52.270;6.832;2023-10-08T04:28:42;6.03;;;3.28;;
47309;SDS011;33046;52.270;6.832;2023-10-08T04:30:49;2.42;;;2.22;;
47309;SDS011;33046;52.270;6.832;2023-10-08T04:32:56;4.35;;;2.30;;
47309;SDS011;33046;52.270;6.832;2023-10-08T04:35:03;3.35;;;2.60;;
47309;SDS011;33046;52.270;6.832;2023-10-08T04:37:10;2.72;;;2.35;;
47309;SDS011;33046;52.270;6.832;2023-10-08T04:39:17;3.15;;;2.72;;
47309;SDS011;33046;52.270;6.832;2023-10-08T04:41:24;3.10;;;2.10;;
47309;SDS011;33046;52.270;6.832;2023-10-08T04:43:31;2.85;;;2.55;;
47309;SDS011;33046;52.270;6.832;2023-10-08T04:45:39;3.63;;;3.33;;
47309;SDS011;33046;52.270;6.832;2023-10-08T04:47:46;3.65;;;2.50;;
47309;SDS011;33046;52.270;6.832;2023-10-08T04:49:53;4.40;;;3.90;;
47309;SDS011;33046;52.270;6.832;2023-10-08T04:52:00;6.18;;;3.53;;
47309;SDS011;33046;52.270;6.832;2023-10-08T04:54:09;6.30;;;3.35;;
47309;SDS011;33046;52.270;6.832;2023-10-08T04:56:16;3.95;;;3.53;;
47309;SDS011;33046;52.270;6.832;2023-10-08T04:58:23;3.10;;;2.60;;
47309;SDS011;33046;52.270;6.832;2023-10-08T05:00:30;4.03;;;3.45;;
47309;SDS011;33046;52.270;6.832;2023-10-08T05:02:38;4.03;;;3.63;;
47309;SDS011;33046;52.270;6.832;2023-10-08T05:04:45;4.32;;;3.40;;
47309;SDS011;33046;52.270;6.832;2023-10-08T05:06:53;3.00;;;2.70;;
47309;SDS011;33046;52.270;6.832;2023-10-08T05:09:00;5.07;;;3.08;;
47309;SDS011;33046;52.270;6.832;2023-10-08T05:11:07;4.28;;;2.80;;
47309;SDS011;33046;52.270;6.832;2023-10-08T05:13:15;3.42;;;2.88;;
47309;SDS011;33046;52.270;6.832;2023-10-08T05:15:22;3.20;;;2.90;;
47309;SDS011;33046;52.270;6.832;2023-10-08T05:17:29;3.03;;;2.42;;
47309;SDS011;33046;52.270;6.832;2023-10-08T05:19:37;2.42;;;2.22;;
47309;SDS011;33046;52.270;6.832;2023-10-08T05:21:44;3.15;;;2.83;;
47309;SDS011;33046;52.270;6.832;2023-10-08T05:23:51;2.97;;;2.67;;
47309;SDS011;33046;52.270;6.832;2023-10-08T05:25:58;3.15;;;2.63;;
47309;SDS011;33046;52.270;6.832;2023-10-08T05:28:05;3.42;;;2.78;;
47309;SDS011;33046;52.270;6.832;2023-10-08T05:30:12;2.88;;;2.40;;
47309;SDS011;33046;52.270;6.832;2023-10-08T05:32:19;2.75;;;2.40;;
47309;SDS011;33046;52.270;6.832;2023-10-08T05:34:26;2.92;;;2.35;;
47309;SDS011;33046;52.270;6.832;2023-10-08T05:36:35;3.45;;;2.75;;
47309;SDS011;33046;52.270;6.832;2023-10-08T05:38:42;3.50;;;2.33;;
47309;SDS011;33046;52.270;6.832;2023-10-08T05:40:49;2.53;;;2.30;;
47309;SDS011;33046;52.270;6.832;2023-10-08T05:42:57;2.67;;;2.28;;
47309;SDS011;33046;52.270;6.832;2023-10-08T05:45:04;3.00;;;2.35;;
47309;SDS011;33046;52.270;6.832;2023-10-08T05:47:12;2.50;;;2.10;;
47309;SDS011;33046;52.270;6.832;2023-10-08T05:49:19;3.25;;;2.95;;
47309;SDS011;33046;52.270;6.832;2023-10-08T05:51:27;2.25;;;1.95;;
47309;SDS011;33046;52.270;6.832;2023-10-08T05:53:35;3.15;;;2.25;;
47309;SDS011;33046;52.270;6.832;2023-10-08T05:55:43;3.97;;;2.50;;
47309;SDS011;33046;52.270;6.832;2023-10-08T05:57:50;3.05;;;2.30;;
47309;SDS011;33046;52.270;6.832;2023-10-08T05:59:58;3.05;;;2.25;;
47309;SDS011;33046;52.270;6.832;2023-10-08T06:02:05;5.35;;;2.53;;
47309;SDS011;33046;52.270;6.832;2023-10-08T06:04:12;3.00;;;2.20;;
47309;SDS011;33046;52.270;6.832;2023-10-08T06:06:19;2.80;;;2.20;;
47309;SDS011;33046;52.270;6.832;2023-10-08T06:08:26;2.63;;;2.38;;
47309;SDS011;33046;52.270;6.832;2023-10-08T06:10:37;3.20;;;2.30;;
47309;SDS011;33046;52.270;6.832;2023-10-08T06:12:44;2.50;;;2.30;;
47309;SDS011;33046;52.270;6.832;2023-10-08T06:14:51;2.72;;;2.38;;
47309;SDS011;33046;52.270;6.832;2023-10-08T06:16:58;2.90;;;2.35;;
47309;SDS011;33046;52.270;6.832;2023-10-08T06:19:05;3.20;;;2.88;;
47309;SDS011;33046;52.270;6.832;2023-10-08T06:21:12;3.55;;;3.10;;
47309;SDS011;33046;52.270;6.832;2023-10-08T06:23:18;3.53;;;2.63;;
47309;SDS011;33046;52.270;6.832;2023-10-08T06:25:26;5.03;;;2.78;;
47309;SDS011;33046;52.270;6.832;2023-10-08T06:27:34;2.92;;;2.22;;
47309;SDS011;33046;52.270;6.832;2023-10-08T06:29:41;2.75;;;2.33;;
47309;SDS011;33046;52.270;6.832;2023-10-08T06:31:48;2.13;;;1.42;;
47309;SDS011;33046;52.270;6.832;2023-10-08T06:33:55;2.38;;;1.90;;
47309;SDS011;33046;52.270;6.832;2023-10-08T06:36:02;3.25;;;2.00;;
47309;SDS011;33046;52.270;6.832;2023-10-08T06:38:09;2.83;;;1.88;;
47309;SDS011;33046;52.270;6.832;2023-10-08T06:40:17;2.55;;;2.03;;
47309;SDS011;33046;52.270;6.832;2023-10-08T06:42:24;2.47;;;1.90;;
47309;SDS011;33046;52.270;6.832;2023-10-08T06:44:32;4.65;;;2.95;;
47309;SDS011;33046;52.270;6.832;2023-10-08T06:46:39;4.35;;;2.40;;
47309;SDS011;33046;52.270;6.832;2023-10-08T06:48:46;2.28;;;1.60;;
47309;SDS011;33046;52.270;6.832;2023-10-08T06:50:53;2.92;;;1.83;;
47309;SDS011;33046;52.270;6.832;2023-10-08T06:53:00;4.28;;;2.03;;
47309;SDS011;33046;52.270;6.832;2023-10-08T06:55:07;2.95;;;1.90;;
47309;SDS011;33046;52.270;6.832;2023-10-08T06:57:14;2.47;;;1.75;;
47309;SDS011;33046;52.270;6.832;2023-10-08T06:59:21;8.73;;;2.38;;
47309;SDS011;33046;52.270;6.832;2023-10-08T07:01:30;2.67;;;1.80;;
47309;SDS011;33046;52.270;6.832;2023-10-08T07:03:36;3.17;;;1.83;;
47309;SDS011;33046;52.270;6.832;2023-10-08T07:05:44;4.53;;;2.03;;
47309;SDS011;33046;52.270;6.832;2023-10-08T07:07:52;7.25;;;1.98;;
47309;SDS011;33046;52.270;6.832;2023-10-08T07:09:58;3.40;;;1.77;;
47309;SDS011;33046;52.270;6.832;2023-10-08T07:12:05;2.60;;;1.83;;
47309;SDS011;33046;52.270;6.832;2023-10-08T07:14:12;2.60;;;1.55;;
47309;SDS011;33046;52.270;6.832;2023-10-08T07:16:19;3.25;;;2.13;;
47309;SDS011;33046;52.270;6.832;2023-10-08T07:18:27;2.38;;;1.20;;
47309;SDS011;33046;52.270;6.832;2023-10-08T07:20:35;4.85;;;1.70;;
47309;SDS011;33046;52.270;6.832;2023-10-08T07:22:43;3.13;;;1.63;;
47309;SDS011;33046;52.270;6.832;2023-10-08T07:24:50;6.65;;;1.45;;
47309;SDS011;33046;52.270;6.832;2023-10-08T07:26:57;2.67;;;1.52;;
47309;SDS011;33046;52.270;6.832;2023-10-08T07:29:04;3.15;;;1.50;;
47309;SDS011;33046;52.270;6.832;2023-10-08T07:31:12;3.75;;;1.83;;
47309;SDS011;33046;52.270;6.832;2023-10-08T07:33:19;3.85;;;1.73;;
47309;SDS011;33046;52.270;6.832;2023-10-08T07:35:28;4.10;;;1.50;;
47309;SDS011;33046;52.270;6.832;2023-10-08T07:37:35;4.65;;;1.85;;
47309;SDS011;33046;52.270;6.832;2023-10-08T07:39:41;3.35;;;1.60;;
47309;SDS011;33046;52.270;6.832;2023-10-08T07:41:48;5.05;;;1.58;;
47309;SDS011;33046;52.270;6.832;2023-10-08T07:43:55;5.43;;;1.55;;
47309;SDS011;33046;52.270;6.832;2023-10-08T07:46:02;2.72;;;1.63;;
47309;SDS011;33046;52.270;6.832;2023-10-08T07:48:09;4.30;;;1.67;;
47309;SDS011;33046;52.270;6.832;2023-10-08T07:50:16;3.47;;;1.70;;
47309;SDS011;33046;52.270;6.832;2023-10-08T07:52:24;3.33;;;1.60;;
47309;SDS011;33046;52.270;6.832;2023-10-08T07:54:31;2.97;;;2.03;;
47309;SDS011;33046;52.270;6.832;2023-10-08T07:56:38;2.53;;;1.80;;
47309;SDS011;33046;52.270;6.832;2023-10-08T07:58:45;5.32;;;2.17;;
47309;SDS011;33046;52.270;6.832;2023-10-08T08:00:52;3.05;;;1.70;;
47309;SDS011;33046;52.270;6.832;2023-10-08T08:02:59;5.65;;;2.30;;
47309;SDS011;33046;52.270;6.832;2023-10-08T08:05:06;2.78;;;1.58;;
47309;SDS011;33046;52.270;6.832;2023-10-08T08:07:13;4.53;;;1.98;;
47309;SDS011;33046;52.270;6.832;2023-10-08T08:09:22;3.33;;;1.73;;
47309;SDS011;33046;52.270;6.832;2023-10-08T08:11:28;3.10;;;1.63;;
47309;SDS011;33046;52.270;6.832;2023-10-08T08:13:35;3.97;;;2.28;;
47309;SDS011;33046;52.270;6.832;2023-10-08T08:15:42;3.53;;;2.15;;
47309;SDS011;33046;52.270;6.832;2023-10-08T08:17:50;2.95;;;1.98;;
47309;SDS011;33046;52.270;6.832;2023-10-08T08:19:59;4.38;;;2.92;;
47309;SDS011;33046;52.270;6.832;2023-10-08T08:22:05;2.72;;;1.70;;
47309;SDS011;33046;52.270;6.832;2023-10-08T08:24:12;4.90;;;1.95;;
47309;SDS011;33046;52.270;6.832;2023-10-08T08:26:23;2.88;;;1.95;;
47309;SDS011;33046;52.270;6.832;2023-10-08T08:28:30;4.00;;;2.05;;
47309;SDS011;33046;52.270;6.832;2023-10-08T08:30:37;4.15;;;1.85;;
47309;SDS011;33046;52.270;6.832;2023-10-08T08:32:44;4.50;;;1.85;;
47309;SDS011;33046;52.270;6.832;2023-10-08T08:34:53;2.90;;;2.25;;
47309;SDS011;33046;52.270;6.832;2023-10-08T08:37:00;3.17;;;1.45;;
47309;SDS011;33046;52.270;6.832;2023-10-08T08:39:06;2.55;;;1.40;;
47309;SDS011;33046;52.270;6.832;2023-10-08T08:41:13;3.63;;;1.40;;
47309;SDS011;33046;52.270;6.832;2023-10-08T08:43:22;3.75;;;1.63;;
47309;SDS011;33046;52.270;6.832;2023-10-08T08:45:29;4.78;;;1.40;;
47309;SDS011;33046;52.270;6.832;2023-10-08T08:47:36;3.22;;;1.38;;
47309;SDS011;33046;52.270;6.832;2023-10-08T08:49:44;4.00;;;1.52;;
47309;SDS011;33046;52.270;6.832;2023-10-08T08:51:51;2.40;;;0.90;;
47309;SDS011;33046;52.270;6.832;2023-10-08T08:53:59;3.58;;;1.13;;
47309;SDS011;33046;52.270;6.832;2023-10-08T08:56:06;5.82;;;2.20;;
47309;SDS011;33046;52.270;6.832;2023-10-08T08:58:13;3.50;;;0.82;;
47309;SDS011;33046;52.270;6.832;2023-10-08T09:00:21;4.07;;;0.60;;
47309;SDS011;33046;52.270;6.832;2023-10-08T09:02:30;3.97;;;1.30;;
47309;SDS011;33046;52.270;6.832;2023-10-08T09:04:37;2.65;;;0.90;;
47309;SDS011;33046;52.270;6.832;2023-10-08T09:06:44;3.95;;;0.88;;
47309;SDS011;33046;52.270;6.832;2023-10-08T09:08:50;2.83;;;0.80;;
47309;SDS011;33046;52.270;6.832;2023-10-08T09:10:59;3.90;;;0.85;;
47309;SDS011;33046;52.270;6.832;2023-10-08T09:13:06;4.15;;;1.02;;
47309;SDS011;33046;52.270;6.832;2023-10-08T09:15:14;3.97;;;0.60;;
47309;SDS011;33046;52.270;6.832;2023-10-08T09:17:24;4.78;;;0.60;;
47309;SDS011;33046;52.270;6.832;2023-10-08T09:19:35;4.38;;;1.02;;
47309;SDS011;33046;52.270;6.832;2023-10-08T09:21:42;7.60;;;1.40;;
47309;SDS011;33046;52.270;6.832;2023-10-08T09:23:49;3.45;;;1.17;;
47309;SDS011;33046;52.270;6.832;2023-10-08T09:25:57;1.98;;;0.80;;
47309;SDS011;33046;52.270;6.832;2023-10-08T09:28:06;3.33;;;0.57;;
47309;SDS011;33046;52.270;6.832;2023-10-08T09:30:13;2.78;;;0.40;;
47309;SDS011;33046;52.270;6.832;2023-10-08T09:32:20;4.05;;;0.50;;
47309;SDS011;33046;52.270;6.832;2023-10-08T09:34:29;2.30;;;0.82;;
47309;SDS011;33046;52.270;6.832;2023-10-08T09:36:37;8.45;;;1.88;;
47309;SDS011;33046;52.270;6.832;2023-10-08T09:38:45;7.15;;;0.70;;
47309;SDS011;33046;52.270;6.832;2023-10-08T09:40:52;2.97;;;0.60;;
47309;SDS011;33046;52.270;6.832;2023-10-08T09:42:59;2.53;;;1.02;;
47309;SDS011;33046;52.270;6.832;2023-10-08T09:45:06;9.98;;;1.50;;
47309;SDS011;33046;52.270;6.832;2023-10-08T09:47:15;5.35;;;1.02;;
47309;SDS011;33046;52.270;6.832;2023-10-08T09:49:31;2.88;;;0.75;;
47309;SDS011;33046;52.270;6.832;2023-10-08T09:51:40;7.10;;;1.40;;
47309;SDS011;33046;52.270;6.832;2023-10-08T09:53:50;3.60;;;0.60;;
47309;SDS011;33046;52.270;6.832;2023-10-08T09:56:01;2.38;;;0.60;;
47309;SDS011;33046;52.270;6.832;2023-10-08T09:58:18;5.47;;;0.80;;
47309;SDS011;33046;52.270;6.832;2023-10-08T10:00:27;3.25;;;1.02;;
47309;SDS011;33046;52.270;6.832;2023-10-08T10:02:35;5.97;;;1.05;;
47309;SDS011;33046;52.270;6.832;2023-10-08T10:04:44;7.07;;;1.80;;
47309;SDS011;33046;52.270;6.832;2023-10-08T10:06:51;4.80;;;1.27;;
47309;SDS011;33046;52.270;6.832;2023-10-08T10:08:58;3.40;;;0.90;;
47309;SDS011;33046;52.270;6.832;2023-10-08T10:11:07;7.00;;;0.85;;
47309;SDS011;33046;52.270;6.832;2023-10-08T10:13:16;6.55;;;1.02;;
47309;SDS011;33046;52.270;6.832;2023-10-08T10:15:23;2.55;;;0.70;;
47309;SDS011;33046;52.270;6.832;2023-10-08T10:17:35;5.20;;;0.90;;
47309;SDS011;33046;52.270;6.832;2023-10-08T10:19:52;5.63;;;0.90;;
47309;SDS011;33046;52.270;6.832;2023-10-08T10:22:00;2.63;;;0.90;;
47309;SDS011;33046;52.270;6.832;2023-10-08T10:24:12;5.10;;;1.60;;
47309;SDS011;33046;52.270;6.832;2023-10-08T10:26:29;2.67;;;0.80;;
47309;SDS011;33046;52.270;6.832;2023-10-08T10:28:37;1.92;;;0.50;;
47309;SDS011;33046;52.270;6.832;2023-10-08T10:30:44;2.08;;;0.80;;
47309;SDS011;33046;52.270;6.832;2023-10-08T10:32:51;3.20;;;1.13;;
47309;SDS011;33046;52.270;6.832;2023-10-08T10:34:59;4.93;;;0.50;;
47309;SDS011;33046;52.270;6.832;2023-10-08T10:37:07;3.00;;;0.60;;
47309;SDS011;33046;52.270;6.832;2023-10-08T10:39:14;4.57;;;0.70;;
47309;SDS011;33046;52.270;6.832;2023-10-08T10:41:23;4.90;;;0.60;;
47309;SDS011;33046;52.270;6.832;2023-10-08T10:43:30;3.28;;;0.70;;
47309;SDS011;33046;52.270;6.832;2023-10-08T10:45:36;2.00;;;0.50;;
47309;SDS011;33046;52.270;6.832;2023-10-08T10:47:44;4.40;;;1.13;;
47309;SDS011;33046;52.270;6.832;2023-10-08T10:49:51;3.63;;;0.82;;
47309;SDS011;33046;52.270;6.832;2023-10-08T10:52:00;3.45;;;0.63;;
47309;SDS011;33046;52.270;6.832;2023-10-08T10:54:07;4.38;;;0.90;;
47309;SDS011;33046;52.270;6.832;2023-10-08T10:56:14;5.75;;;0.90;;
47309;SDS011;33046;52.270;6.832;2023-10-08T10:58:21;3.03;;;0.60;;
47309;SDS011;33046;52.270;6.832;2023-10-08T11:00:31;4.20;;;0.60;;
47309;SDS011;33046;52.270;6.832;2023-10-08T11:02:38;2.40;;;0.60;;
47309;SDS011;33046;52.270;6.832;2023-10-08T11:04:45;5.40;;;0.68;;
47309;SDS011;33046;52.270;6.832;2023-10-08T11:06:51;4.80;;;1.40;;
47309;SDS011;33046;52.270;6.832;2023-10-08T11:09:00;4.03;;;0.55;;
47309;SDS011;33046;52.270;6.832;2023-10-08T11:11:07;3.33;;;0.90;;
47309;SDS011;33046;52.270;6.832;2023-10-08T11:13:16;3.55;;;0.50;;
47309;SDS011;33046;52.270;6.832;2023-10-08T11:15:25;5.03;;;0.60;;
47309;SDS011;33046;52.270;6.832;2023-10-08T11:17:31;5.95;;;0.60;;
47309;SDS011;33046;52.270;6.832;2023-10-08T11:19:38;3.78;;;1.05;;
47309;SDS011;33046;52.270;6.832;2023-10-08T11:21:48;6.70;;;0.70;;
47309;SDS011;33046;52.270;6.832;2023-10-08T11:23:56;7.07;;;1.40;;
47309;SDS011;33046;52.270;6.832;2023-10-08T11:26:04;1.90;;;0.85;;
47309;SDS011;33046;52.270;6.832;2023-10-08T11:28:11;5.15;;;0.60;;
47309;SDS011;33046;52.270;6.832;2023-10-08T11:30:18;4.85;;;1.23;;
47309;SDS011;33046;52.270;6.832;2023-10-08T11:32:25;4.35;;;0.80;;
47309;SDS011;33046;52.270;6.832;2023-10-08T11:34:33;4.15;;;1.15;;
47309;SDS011;33046;52.270;6.832;2023-10-08T11:36:40;2.35;;;0.60;;
47309;SDS011;33046;52.270;6.832;2023-10-08T11:38:47;1.95;;;0.50;;
47309;SDS011;33046;52.270;6.832;2023-10-08T11:40:54;2.92;;;0.60;;
47309;SDS011;33046;52.270;6.832;2023-10-08T11:43:02;2.08;;;0.60;;
47309;SDS011;33046;52.270;6.832;2023-10-08T11:45:10;3.28;;;0.80;;
47309;SDS011;33046;52.270;6.832;2023-10-08T11:47:17;4.68;;;1.17;;
47309;SDS011;33046;52.270;6.832;2023-10-08T11:49:24;5.97;;;0.93;;
47309;SDS011;33046;52.270;6.832;2023-10-08T11:51:31;5.63;;;1.35;;
47309;SDS011;33046;52.270;6.832;2023-10-08T11:53:38;3.13;;;1.00;;
47309;SDS011;33046;52.270;6.832;2023-10-08T11:55:45;4.72;;;1.05;;
47309;SDS011;33046;52.270;6.832;2023-10-08T11:57:52;3.88;;;1.20;;
47309;SDS011;33046;52.270;6.832;2023-10-08T12:00:01;4.60;;;0.95;;
47309;SDS011;33046;52.270;6.832;2023-10-08T12:02:09;3.78;;;1.13;;
47309;SDS011;33046;52.270;6.832;2023-10-08T12:04:16;3.97;;;1.40;;
47309;SDS011;33046;52.270;6.832;2023-10-08T12:06:23;4.72;;;0.90;;
47309;SDS011;33046;52.270;6.832;2023-10-08T12:08:30;3.50;;;1.48;;
47309;SDS011;33046;52.270;6.832;2023-10-08T12:10:37;2.53;;;0.90;;
47309;SDS011;33046;52.270;6.832;2023-10-08T12:12:44;5.22;;;1.00;;
47309;SDS011;33046;52.270;6.832;2023-10-08T12:14:51;1.90;;;0.93;;
47309;SDS011;33046;52.270;6.832;2023-10-08T12:17:00;3.80;;;1.10;;
47309;SDS011;33046;52.270;6.832;2023-10-08T12:19:07;3.05;;;1.42;;
47309;SDS011;33046;52.270;6.832;2023-10-08T12:21:14;5.00;;;1.05;;
47309;SDS011;33046;52.270;6.832;2023-10-08T12:23:21;3.63;;;0.93;;
47309;SDS011;33046;52.270;6.832;2023-10-08T12:25:28;3.75;;;0.77;;
47309;SDS011;33046;52.270;6.832;2023-10-08T12:27:35;3.47;;;0.90;;
47309;SDS011;33046;52.270;6.832;2023-10-08T12:29:42;2.97;;;0.82;;
47309;SDS011;33046;52.270;6.832;2023-10-08T12:31:49;3.47;;;1.08;;
47309;SDS011;33046;52.270;6.832;2023-10-08T12:33:57;4.63;;;1.33;;
47309;SDS011;33046;52.270;6.832;2023-10-08T12:36:04;7.78;;;2.15;;
47309;SDS011;33046;52.270;6.832;2023-10-08T12:38:11;4.18;;;0.90;;
47309;SDS011;33046;52.270;6.832;2023-10-08T12:40:18;4.25;;;0.70;;
47309;SDS011;33046;52.270;6.832;2023-10-08T12:42:25;4.72;;;0.85;;
47309;SDS011;33046;52.270;6.832;2023-10-08T12:44:32;3.25;;;1.17;;
47309;SDS011;33046;52.270;6.832;2023-10-08T12:46:39;2.92;;;0.70;;